Аэропорт
Игнатьево (UHBB)

 UHBB / BQS
ЗЦ Хабаровск
Хабаровск (UHHH)
Хабаровск (UHHH)
 50.42540, 127.41200  / 638 ft

 UHBB 240400Z 34006MPS 9999 SCT033CB M02/M10 Q1009 R36/420350 NOSIG RMK QFE739/0986
 UHBB 231345Z 2315/2415 33006MPS 3100 -SHSN SCT020CB TEMPO 2318/2401 0800 +SHSN VV003 TEMPO 2407/2409 2100 -SHSN
uhbb_aip_1605
показать схемы
Название сценария Тип сценария Flight Simulator 9 Flight Simulator X Prepar3D v2 Prepar3D v3 Prepar3D v4 xPlane
uhbb-scenery-fs9-1406 бесплатный
uhbb-scenery-xpl-1209 бесплатный


2019 © VATRUS division (Privacy Policy)